sensor_id;sensor_type;location;lat;lon;timestamp;P1;durP1;ratioP1;P2;durP2;ratioP2
70071;SDS011;57434;42.794;23.302;2024-02-28T00:00:31;18.65;;;8.55;;
70071;SDS011;57434;42.794;23.302;2024-02-28T00:01:33;20.87;;;8.60;;
70071;SDS011;57434;42.794;23.302;2024-02-28T00:02:36;22.30;;;9.20;;
70071;SDS011;57434;42.794;23.302;2024-02-28T00:03:38;18.10;;;8.35;;
70071;SDS011;57434;42.794;23.302;2024-02-28T00:04:40;19.13;;;8.68;;
70071;SDS011;57434;42.794;23.302;2024-02-28T00:05:43;21.90;;;9.35;;
70071;SDS011;57434;42.794;23.302;2024-02-28T00:06:45;19.73;;;8.52;;
70071;SDS011;57434;42.794;23.302;2024-02-28T00:07:47;17.55;;;9.07;;
70071;SDS011;57434;42.794;23.302;2024-02-28T00:08:49;18.77;;;10.30;;
70071;SDS011;57434;42.794;23.302;2024-02-28T00:09:52;20.13;;;9.27;;
70071;SDS011;57434;42.794;23.302;2024-02-28T00:10:54;17.17;;;8.25;;
70071;SDS011;57434;42.794;23.302;2024-02-28T00:11:56;16.17;;;8.30;;
70071;SDS011;57434;42.794;23.302;2024-02-28T00:12:59;19.15;;;9.63;;
70071;SDS011;57434;42.794;23.302;2024-02-28T00:14:01;22.60;;;8.95;;
70071;SDS011;57434;42.794;23.302;2024-02-28T00:15:04;18.75;;;9.25;;
70071;SDS011;57434;42.794;23.302;2024-02-28T00:16:07;18.38;;;9.23;;
70071;SDS011;57434;42.794;23.302;2024-02-28T00:17:09;19.63;;;8.25;;
70071;SDS011;57434;42.794;23.302;2024-02-28T00:18:11;19.45;;;8.65;;
70071;SDS011;57434;42.794;23.302;2024-02-28T00:19:13;16.75;;;8.80;;
70071;SDS011;57434;42.794;23.302;2024-02-28T00:20:16;18.23;;;8.27;;
70071;SDS011;57434;42.794;23.302;2024-02-28T00:21:18;22.35;;;8.70;;
70071;SDS011;57434;42.794;23.302;2024-02-28T00:22:20;16.37;;;8.37;;
70071;SDS011;57434;42.794;23.302;2024-02-28T00:23:22;18.27;;;8.30;;
70071;SDS011;57434;42.794;23.302;2024-02-28T00:24:25;21.05;;;8.95;;
70071;SDS011;57434;42.794;23.302;2024-02-28T00:25:27;21.20;;;8.95;;
70071;SDS011;57434;42.794;23.302;2024-02-28T00:26:29;19.23;;;8.40;;
70071;SDS011;57434;42.794;23.302;2024-02-28T00:27:33;16.98;;;7.97;;
70071;SDS011;57434;42.794;23.302;2024-02-28T00:28:35;21.08;;;8.20;;
70071;SDS011;57434;42.794;23.302;2024-02-28T00:29:37;18.65;;;8.23;;
70071;SDS011;57434;42.794;23.302;2024-02-28T00:30:39;19.52;;;8.48;;
70071;SDS011;57434;42.794;23.302;2024-02-28T00:31:42;23.15;;;8.40;;
70071;SDS011;57434;42.794;23.302;2024-02-28T00:32:44;21.10;;;9.80;;
70071;SDS011;57434;42.794;23.302;2024-02-28T00:33:46;22.25;;;9.52;;
70071;SDS011;57434;42.794;23.302;2024-02-28T00:34:49;20.75;;;9.25;;
70071;SDS011;57434;42.794;23.302;2024-02-28T00:35:51;19.77;;;9.82;;
70071;SDS011;57434;42.794;23.302;2024-02-28T00:36:53;18.90;;;9.32;;
70071;SDS011;57434;42.794;23.302;2024-02-28T00:37:57;22.08;;;9.18;;
70071;SDS011;57434;42.794;23.302;2024-02-28T00:38:59;21.27;;;9.55;;
70071;SDS011;57434;42.794;23.302;2024-02-28T00:40:01;21.20;;;9.27;;
70071;SDS011;57434;42.794;23.302;2024-02-28T00:41:03;22.63;;;9.48;;
70071;SDS011;57434;42.794;23.302;2024-02-28T00:42:06;19.90;;;9.63;;
70071;SDS011;57434;42.794;23.302;2024-02-28T00:43:08;23.83;;;9.97;;
70071;SDS011;57434;42.794;23.302;2024-02-28T00:44:11;21.95;;;9.57;;
70071;SDS011;57434;42.794;23.302;2024-02-28T00:45:13;22.73;;;9.20;;
70071;SDS011;57434;42.794;23.302;2024-02-28T00:46:15;22.00;;;11.18;;
70071;SDS011;57434;42.794;23.302;2024-02-28T00:47:17;23.42;;;10.52;;
70071;SDS011;57434;42.794;23.302;2024-02-28T00:48:19;19.02;;;9.10;;
70071;SDS011;57434;42.794;23.302;2024-02-28T00:49:21;21.63;;;8.70;;
70071;SDS011;57434;42.794;23.302;2024-02-28T00:50:23;19.70;;;9.38;;
70071;SDS011;57434;42.794;23.302;2024-02-28T00:51:25;19.45;;;9.65;;
70071;SDS011;57434;42.794;23.302;2024-02-28T00:52:28;21.55;;;9.70;;
70071;SDS011;57434;42.794;23.302;2024-02-28T00:53:30;20.83;;;9.77;;
70071;SDS011;57434;42.794;23.302;2024-02-28T00:54:33;27.80;;;10.88;;
70071;SDS011;57434;42.794;23.302;2024-02-28T00:55:35;31.10;;;9.85;;
70071;SDS011;57434;42.794;23.302;2024-02-28T00:56:37;26.33;;;10.63;;
70071;SDS011;57434;42.794;23.302;2024-02-28T00:57:39;21.40;;;9.40;;
70071;SDS011;57434;42.794;23.302;2024-02-28T00:58:43;25.55;;;9.23;;
70071;SDS011;57434;42.794;23.302;2024-02-28T00:59:45;21.15;;;9.98;;
70071;SDS011;57434;42.794;23.302;2024-02-28T01:00:48;23.52;;;10.55;;
70071;SDS011;57434;42.794;23.302;2024-02-28T01:01:50;23.27;;;10.27;;
70071;SDS011;57434;42.794;23.302;2024-02-28T01:02:52;23.98;;;10.68;;
70071;SDS011;57434;42.794;23.302;2024-02-28T01:03:54;24.60;;;10.90;;
70071;SDS011;57434;42.794;23.302;2024-02-28T01:04:56;23.20;;;10.07;;
70071;SDS011;57434;42.794;23.302;2024-02-28T01:05:58;24.40;;;11.25;;
70071;SDS011;57434;42.794;23.302;2024-02-28T01:07:00;22.95;;;10.63;;
70071;SDS011;57434;42.794;23.302;2024-02-28T01:08:02;23.08;;;10.88;;
70071;SDS011;57434;42.794;23.302;2024-02-28T01:09:05;23.55;;;10.48;;
70071;SDS011;57434;42.794;23.302;2024-02-28T01:10:07;28.48;;;11.57;;
70071;SDS011;57434;42.794;23.302;2024-02-28T01:11:09;25.58;;;9.93;;
70071;SDS011;57434;42.794;23.302;2024-02-28T01:12:12;24.65;;;10.35;;
70071;SDS011;57434;42.794;23.302;2024-02-28T01:13:14;19.85;;;9.50;;
70071;SDS011;57434;42.794;23.302;2024-02-28T01:14:16;20.37;;;10.40;;
70071;SDS011;57434;42.794;23.302;2024-02-28T01:15:18;22.10;;;11.73;;
70071;SDS011;57434;42.794;23.302;2024-02-28T01:16:21;22.83;;;10.80;;
70071;SDS011;57434;42.794;23.302;2024-02-28T01:17:23;24.80;;;10.50;;
70071;SDS011;57434;42.794;23.302;2024-02-28T01:18:26;23.30;;;11.35;;
70071;SDS011;57434;42.794;23.302;2024-02-28T01:19:28;22.25;;;10.02;;
70071;SDS011;57434;42.794;23.302;2024-02-28T01:20:30;20.30;;;10.48;;
70071;SDS011;57434;42.794;23.302;2024-02-28T01:21:31;22.33;;;10.27;;
70071;SDS011;57434;42.794;23.302;2024-02-28T01:22:33;25.13;;;10.00;;
70071;SDS011;57434;42.794;23.302;2024-02-28T01:23:35;20.25;;;9.68;;
70071;SDS011;57434;42.794;23.302;2024-02-28T01:24:37;24.40;;;10.97;;
70071;SDS011;57434;42.794;23.302;2024-02-28T01:25:38;22.58;;;10.32;;
70071;SDS011;57434;42.794;23.302;2024-02-28T01:26:40;22.42;;;11.10;;
70071;SDS011;57434;42.794;23.302;2024-02-28T01:27:42;21.63;;;10.32;;
70071;SDS011;57434;42.794;23.302;2024-02-28T01:28:44;23.25;;;10.82;;
70071;SDS011;57434;42.794;23.302;2024-02-28T01:29:45;22.00;;;10.35;;
70071;SDS011;57434;42.794;23.302;2024-02-28T01:30:47;22.27;;;10.38;;
70071;SDS011;57434;42.794;23.302;2024-02-28T01:31:49;21.40;;;10.63;;
70071;SDS011;57434;42.794;23.302;2024-02-28T01:32:51;21.73;;;9.80;;
70071;SDS011;57434;42.794;23.302;2024-02-28T01:33:53;20.10;;;9.07;;
70071;SDS011;57434;42.794;23.302;2024-02-28T01:34:55;21.57;;;11.20;;
70071;SDS011;57434;42.794;23.302;2024-02-28T01:35:56;22.20;;;10.18;;
70071;SDS011;57434;42.794;23.302;2024-02-28T01:37:00;24.00;;;10.43;;
70071;SDS011;57434;42.794;23.302;2024-02-28T01:38:01;21.10;;;9.80;;
70071;SDS011;57434;42.794;23.302;2024-02-28T01:39:03;25.55;;;9.63;;
70071;SDS011;57434;42.794;23.302;2024-02-28T01:40:05;25.85;;;10.65;;
70071;SDS011;57434;42.794;23.302;2024-02-28T01:41:07;22.73;;;10.30;;
70071;SDS011;57434;42.794;23.302;2024-02-28T01:42:08;23.90;;;10.43;;
70071;SDS011;57434;42.794;23.302;2024-02-28T01:43:11;24.00;;;9.68;;
70071;SDS011;57434;42.794;23.302;2024-02-28T01:44:13;24.00;;;10.80;;
70071;SDS011;57434;42.794;23.302;2024-02-28T01:45:14;23.47;;;10.67;;
70071;SDS011;57434;42.794;23.302;2024-02-28T01:46:26;19.73;;;9.88;;
70071;SDS011;57434;42.794;23.302;2024-02-28T01:47:28;27.33;;;10.88;;
70071;SDS011;57434;42.794;23.302;2024-02-28T01:48:29;25.50;;;10.60;;
70071;SDS011;57434;42.794;23.302;2024-02-28T01:49:31;25.23;;;11.90;;
70071;SDS011;57434;42.794;23.302;2024-02-28T01:50:33;23.23;;;11.38;;
70071;SDS011;57434;42.794;23.302;2024-02-28T01:51:35;26.00;;;11.48;;
70071;SDS011;57434;42.794;23.302;2024-02-28T01:52:37;22.73;;;10.60;;
70071;SDS011;57434;42.794;23.302;2024-02-28T01:53:39;23.52;;;10.75;;
70071;SDS011;57434;42.794;23.302;2024-02-28T01:54:41;21.08;;;10.10;;
70071;SDS011;57434;42.794;23.302;2024-02-28T01:55:43;19.70;;;9.60;;
70071;SDS011;57434;42.794;23.302;2024-02-28T01:56:45;21.08;;;10.00;;
70071;SDS011;57434;42.794;23.302;2024-02-28T01:57:47;23.45;;;11.38;;
70071;SDS011;57434;42.794;23.302;2024-02-28T01:58:49;19.42;;;10.73;;
70071;SDS011;57434;42.794;23.302;2024-02-28T01:59:51;25.80;;;11.32;;
70071;SDS011;57434;42.794;23.302;2024-02-28T02:00:53;21.80;;;10.38;;
70071;SDS011;57434;42.794;23.302;2024-02-28T02:01:55;24.55;;;10.65;;
70071;SDS011;57434;42.794;23.302;2024-02-28T02:02:57;26.83;;;10.32;;
70071;SDS011;57434;42.794;23.302;2024-02-28T02:03:58;22.70;;;10.15;;
70071;SDS011;57434;42.794;23.302;2024-02-28T02:05:00;22.85;;;9.93;;
70071;SDS011;57434;42.794;23.302;2024-02-28T02:06:02;21.77;;;9.80;;
70071;SDS011;57434;42.794;23.302;2024-02-28T02:07:05;18.27;;;8.82;;
70071;SDS011;57434;42.794;23.302;2024-02-28T02:08:07;22.30;;;9.45;;
70071;SDS011;57434;42.794;23.302;2024-02-28T02:09:09;18.52;;;10.20;;
70071;SDS011;57434;42.794;23.302;2024-02-28T02:10:11;21.17;;;9.52;;
70071;SDS011;57434;42.794;23.302;2024-02-28T02:11:13;20.15;;;10.60;;
70071;SDS011;57434;42.794;23.302;2024-02-28T02:12:16;20.38;;;8.93;;
70071;SDS011;57434;42.794;23.302;2024-02-28T02:13:18;20.48;;;9.55;;
70071;SDS011;57434;42.794;23.302;2024-02-28T02:14:19;22.65;;;10.52;;
70071;SDS011;57434;42.794;23.302;2024-02-28T02:15:21;22.38;;;9.93;;
70071;SDS011;57434;42.794;23.302;2024-02-28T02:16:23;23.43;;;10.03;;
70071;SDS011;57434;42.794;23.302;2024-02-28T02:17:24;21.45;;;10.30;;
70071;SDS011;57434;42.794;23.302;2024-02-28T02:18:26;19.42;;;10.07;;
70071;SDS011;57434;42.794;23.302;2024-02-28T02:19:28;18.20;;;8.77;;
70071;SDS011;57434;42.794;23.302;2024-02-28T02:20:32;18.40;;;9.40;;
70071;SDS011;57434;42.794;23.302;2024-02-28T02:21:45;22.02;;;9.48;;
70071;SDS011;57434;42.794;23.302;2024-02-28T02:22:50;21.08;;;9.18;;
70071;SDS011;57434;42.794;23.302;2024-02-28T02:23:51;21.27;;;10.10;;
70071;SDS011;57434;42.794;23.302;2024-02-28T02:24:53;22.92;;;10.57;;
70071;SDS011;57434;42.794;23.302;2024-02-28T02:25:55;22.15;;;10.50;;
70071;SDS011;57434;42.794;23.302;2024-02-28T02:26:57;19.33;;;8.73;;
70071;SDS011;57434;42.794;23.302;2024-02-28T02:27:59;20.25;;;9.82;;
70071;SDS011;57434;42.794;23.302;2024-02-28T02:29:01;22.25;;;9.68;;
70071;SDS011;57434;42.794;23.302;2024-02-28T02:30:21;24.65;;;10.65;;
70071;SDS011;57434;42.794;23.302;2024-02-28T02:31:22;20.75;;;9.40;;
70071;SDS011;57434;42.794;23.302;2024-02-28T02:32:24;22.00;;;9.73;;
70071;SDS011;57434;42.794;23.302;2024-02-28T02:33:26;22.42;;;9.55;;
70071;SDS011;57434;42.794;23.302;2024-02-28T02:34:28;20.80;;;9.50;;
70071;SDS011;57434;42.794;23.302;2024-02-28T02:35:29;21.60;;;10.27;;
70071;SDS011;57434;42.794;23.302;2024-02-28T02:36:31;23.75;;;9.95;;
70071;SDS011;57434;42.794;23.302;2024-02-28T02:37:33;19.60;;;9.13;;
70071;SDS011;57434;42.794;23.302;2024-02-28T02:38:34;17.88;;;9.15;;
70071;SDS011;57434;42.794;23.302;2024-02-28T02:39:36;20.63;;;9.45;;
70071;SDS011;57434;42.794;23.302;2024-02-28T02:40:38;23.13;;;9.90;;
70071;SDS011;57434;42.794;23.302;2024-02-28T02:41:40;19.80;;;9.95;;
70071;SDS011;57434;42.794;23.302;2024-02-28T02:42:41;24.35;;;9.98;;
70071;SDS011;57434;42.794;23.302;2024-02-28T02:43:43;21.48;;;8.88;;
70071;SDS011;57434;42.794;23.302;2024-02-28T02:44:45;21.63;;;9.93;;
70071;SDS011;57434;42.794;23.302;2024-02-28T02:45:47;22.33;;;10.20;;
70071;SDS011;57434;42.794;23.302;2024-02-28T02:46:48;21.55;;;9.68;;
70071;SDS011;57434;42.794;23.302;2024-02-28T02:47:50;23.73;;;10.53;;
70071;SDS011;57434;42.794;23.302;2024-02-28T02:48:52;22.17;;;9.40;;
70071;SDS011;57434;42.794;23.302;2024-02-28T02:49:54;23.42;;;9.90;;
70071;SDS011;57434;42.794;23.302;2024-02-28T02:50:55;23.10;;;10.85;;
70071;SDS011;57434;42.794;23.302;2024-02-28T02:51:57;22.20;;;10.18;;
70071;SDS011;57434;42.794;23.302;2024-02-28T02:52:59;23.45;;;10.38;;
70071;SDS011;57434;42.794;23.302;2024-02-28T02:54:00;18.30;;;9.48;;
70071;SDS011;57434;42.794;23.302;2024-02-28T02:55:02;24.02;;;10.57;;
70071;SDS011;57434;42.794;23.302;2024-02-28T02:56:04;21.92;;;9.85;;
70071;SDS011;57434;42.794;23.302;2024-02-28T02:57:06;27.77;;;10.50;;
70071;SDS011;57434;42.794;23.302;2024-02-28T02:58:08;25.00;;;10.30;;
70071;SDS011;57434;42.794;23.302;2024-02-28T02:59:10;25.15;;;10.45;;
70071;SDS011;57434;42.794;23.302;2024-02-28T03:00:11;21.73;;;10.45;;
70071;SDS011;57434;42.794;23.302;2024-02-28T03:01:13;20.98;;;9.88;;
70071;SDS011;57434;42.794;23.302;2024-02-28T03:02:15;24.23;;;10.57;;
70071;SDS011;57434;42.794;23.302;2024-02-28T03:03:17;19.63;;;9.23;;
70071;SDS011;57434;42.794;23.302;2024-02-28T03:04:19;21.90;;;10.27;;
70071;SDS011;57434;42.794;23.302;2024-02-28T03:05:20;26.80;;;9.93;;
70071;SDS011;57434;42.794;23.302;2024-02-28T03:06:22;25.05;;;10.02;;
70071;SDS011;57434;42.794;23.302;2024-02-28T03:07:24;20.35;;;9.05;;
70071;SDS011;57434;42.794;23.302;2024-02-28T03:08:26;17.00;;;9.00;;
70071;SDS011;57434;42.794;23.302;2024-02-28T03:09:27;18.08;;;8.60;;
70071;SDS011;57434;42.794;23.302;2024-02-28T03:10:29;26.17;;;9.63;;
70071;SDS011;57434;42.794;23.302;2024-02-28T03:11:31;23.83;;;9.85;;
70071;SDS011;57434;42.794;23.302;2024-02-28T03:12:33;22.83;;;9.70;;
70071;SDS011;57434;42.794;23.302;2024-02-28T03:13:34;19.05;;;9.75;;
70071;SDS011;57434;42.794;23.302;2024-02-28T03:14:36;17.98;;;8.60;;
70071;SDS011;57434;42.794;23.302;2024-02-28T03:15:38;22.80;;;10.25;;
70071;SDS011;57434;42.794;23.302;2024-02-28T03:16:43;18.67;;;9.23;;
70071;SDS011;57434;42.794;23.302;2024-02-28T03:17:44;20.10;;;8.90;;
70071;SDS011;57434;42.794;23.302;2024-02-28T03:18:46;20.47;;;9.57;;
70071;SDS011;57434;42.794;23.302;2024-02-28T03:19:48;23.30;;;9.57;;
70071;SDS011;57434;42.794;23.302;2024-02-28T03:20:49;24.15;;;9.00;;
70071;SDS011;57434;42.794;23.302;2024-02-28T03:21:51;21.15;;;9.70;;
70071;SDS011;57434;42.794;23.302;2024-02-28T03:22:53;16.55;;;8.13;;
70071;SDS011;57434;42.794;23.302;2024-02-28T03:23:55;20.38;;;9.13;;
70071;SDS011;57434;42.794;23.302;2024-02-28T03:24:56;18.08;;;8.80;;
70071;SDS011;57434;42.794;23.302;2024-02-28T03:25:58;19.73;;;9.35;;
70071;SDS011;57434;42.794;23.302;2024-02-28T03:26:59;19.40;;;9.15;;
70071;SDS011;57434;42.794;23.302;2024-02-28T03:28:02;20.27;;;8.88;;
70071;SDS011;57434;42.794;23.302;2024-02-28T03:29:04;22.37;;;9.97;;
70071;SDS011;57434;42.794;23.302;2024-02-28T03:30:06;19.63;;;9.07;;
70071;SDS011;57434;42.794;23.302;2024-02-28T03:31:08;19.63;;;8.05;;
70071;SDS011;57434;42.794;23.302;2024-02-28T03:32:10;18.58;;;8.32;;
70071;SDS011;57434;42.794;23.302;2024-02-28T03:33:12;22.13;;;9.45;;
70071;SDS011;57434;42.794;23.302;2024-02-28T03:34:14;19.65;;;8.43;;
70071;SDS011;57434;42.794;23.302;2024-02-28T03:35:16;18.92;;;8.68;;
70071;SDS011;57434;42.794;23.302;2024-02-28T03:36:17;19.27;;;9.48;;
70071;SDS011;57434;42.794;23.302;2024-02-28T03:37:19;19.60;;;9.13;;
70071;SDS011;57434;42.794;23.302;2024-02-28T03:38:21;21.00;;;8.23;;
70071;SDS011;57434;42.794;23.302;2024-02-28T03:39:23;18.17;;;9.33;;
70071;SDS011;57434;42.794;23.302;2024-02-28T03:40:24;18.20;;;8.68;;
70071;SDS011;57434;42.794;23.302;2024-02-28T03:41:26;22.80;;;9.05;;
70071;SDS011;57434;42.794;23.302;2024-02-28T03:42:28;21.30;;;9.25;;
70071;SDS011;57434;42.794;23.302;2024-02-28T03:43:30;19.40;;;9.40;;
70071;SDS011;57434;42.794;23.302;2024-02-28T03:44:31;22.63;;;9.27;;
70071;SDS011;57434;42.794;23.302;2024-02-28T03:45:36;20.60;;;9.52;;
70071;SDS011;57434;42.794;23.302;2024-02-28T03:46:38;22.20;;;9.43;;
70071;SDS011;57434;42.794;23.302;2024-02-28T03:47:40;21.40;;;9.00;;
70071;SDS011;57434;42.794;23.302;2024-02-28T03:48:41;21.00;;;8.82;;
70071;SDS011;57434;42.794;23.302;2024-02-28T03:49:43;19.80;;;9.17;;
70071;SDS011;57434;42.794;23.302;2024-02-28T03:50:45;24.25;;;8.75;;
70071;SDS011;57434;42.794;23.302;2024-02-28T03:51:46;18.10;;;8.38;;
70071;SDS011;57434;42.794;23.302;2024-02-28T03:52:48;19.55;;;9.00;;
70071;SDS011;57434;42.794;23.302;2024-02-28T03:53:50;18.30;;;8.60;;
70071;SDS011;57434;42.794;23.302;2024-02-28T03:54:52;22.02;;;9.57;;
70071;SDS011;57434;42.794;23.302;2024-02-28T03:55:53;17.45;;;8.57;;
70071;SDS011;57434;42.794;23.302;2024-02-28T03:56:55;19.33;;;10.02;;
70071;SDS011;57434;42.794;23.302;2024-02-28T03:57:57;23.23;;;11.13;;
70071;SDS011;57434;42.794;23.302;2024-02-28T03:58:58;24.52;;;11.40;;
70071;SDS011;57434;42.794;23.302;2024-02-28T04:00:01;25.97;;;11.93;;
70071;SDS011;57434;42.794;23.302;2024-02-28T04:01:02;22.27;;;10.98;;
70071;SDS011;57434;42.794;23.302;2024-02-28T04:02:04;26.55;;;11.40;;
70071;SDS011;57434;42.794;23.302;2024-02-28T04:03:06;21.55;;;9.82;;
70071;SDS011;57434;42.794;23.302;2024-02-28T04:04:08;23.45;;;10.77;;
70071;SDS011;57434;42.794;23.302;2024-02-28T04:05:09;23.15;;;10.60;;
70071;SDS011;57434;42.794;23.302;2024-02-28T04:06:11;22.02;;;9.60;;
70071;SDS011;57434;42.794;23.302;2024-02-28T04:07:13;23.88;;;9.80;;
70071;SDS011;57434;42.794;23.302;2024-02-28T04:08:14;22.10;;;9.82;;
70071;SDS011;57434;42.794;23.302;2024-02-28T04:09:16;24.83;;;9.27;;
70071;SDS011;57434;42.794;23.302;2024-02-28T04:10:18;19.50;;;8.57;;
70071;SDS011;57434;42.794;23.302;2024-02-28T04:11:19;19.33;;;8.55;;
70071;SDS011;57434;42.794;23.302;2024-02-28T04:12:21;18.35;;;8.93;;
70071;SDS011;57434;42.794;23.302;2024-02-28T04:13:23;20.33;;;9.00;;
70071;SDS011;57434;42.794;23.302;2024-02-28T04:14:25;18.23;;;8.75;;
70071;SDS011;57434;42.794;23.302;2024-02-28T04:15:26;17.08;;;9.00;;
70071;SDS011;57434;42.794;23.302;2024-02-28T04:16:28;23.05;;;9.00;;
70071;SDS011;57434;42.794;23.302;2024-02-28T04:17:30;19.35;;;8.45;;
70071;SDS011;57434;42.794;23.302;2024-02-28T04:18:32;20.08;;;7.65;;
70071;SDS011;57434;42.794;23.302;2024-02-28T04:19:33;17.50;;;8.13;;
70071;SDS011;57434;42.794;23.302;2024-02-28T04:20:35;19.73;;;8.63;;
70071;SDS011;57434;42.794;23.302;2024-02-28T04:21:37;17.88;;;8.18;;
70071;SDS011;57434;42.794;23.302;2024-02-28T04:22:39;20.55;;;8.23;;
70071;SDS011;57434;42.794;23.302;2024-02-28T04:23:41;17.88;;;8.45;;
70071;SDS011;57434;42.794;23.302;2024-02-28T04:24:43;22.75;;;8.75;;
70071;SDS011;57434;42.794;23.302;2024-02-28T04:25:44;16.60;;;7.25;;
70071;SDS011;57434;42.794;23.302;2024-02-28T04:26:46;21.30;;;9.18;;
70071;SDS011;57434;42.794;23.302;2024-02-28T04:27:48;19.23;;;8.73;;
70071;SDS011;57434;42.794;23.302;2024-02-28T04:28:49;21.35;;;8.57;;
70071;SDS011;57434;42.794;23.302;2024-02-28T04:29:51;20.80;;;8.30;;
70071;SDS011;57434;42.794;23.302;2024-02-28T04:30:53;20.00;;;9.33;;
70071;SDS011;57434;42.794;23.302;2024-02-28T04:31:55;19.58;;;9.52;;
70071;SDS011;57434;42.794;23.302;2024-02-28T04:32:57;19.30;;;9.02;;
70071;SDS011;57434;42.794;23.302;2024-02-28T04:33:58;25.20;;;11.35;;
70071;SDS011;57434;42.794;23.302;2024-02-28T04:35:00;22.17;;;10.88;;
70071;SDS011;57434;42.794;23.302;2024-02-28T04:36:02;18.25;;;9.40;;
70071;SDS011;57434;42.794;23.302;2024-02-28T04:37:04;27.02;;;9.77;;
70071;SDS011;57434;42.794;23.302;2024-02-28T04:38:05;19.73;;;8.80;;
70071;SDS011;57434;42.794;23.302;2024-02-28T04:39:07;26.33;;;10.70;;
70071;SDS011;57434;42.794;23.302;2024-02-28T04:40:09;17.38;;;8.38;;
70071;SDS011;57434;42.794;23.302;2024-02-28T04:41:11;19.23;;;8.90;;
70071;SDS011;57434;42.794;23.302;2024-02-28T04:42:15;19.92;;;9.32;;
70071;SDS011;57434;42.794;23.302;2024-02-28T04:43:17;18.42;;;9.55;;
70071;SDS011;57434;42.794;23.302;2024-02-28T04:44:19;27.05;;;14.57;;
70071;SDS011;57434;42.794;23.302;2024-02-28T04:45:21;25.95;;;12.73;;
70071;SDS011;57434;42.794;23.302;2024-02-28T04:46:23;23.13;;;10.25;;
70071;SDS011;57434;42.794;23.302;2024-02-28T04:47:24;20.73;;;10.15;;
70071;SDS011;57434;42.794;23.302;2024-02-28T04:48:36;21.08;;;9.52;;
70071;SDS011;57434;42.794;23.302;2024-02-28T04:49:38;20.13;;;8.70;;
70071;SDS011;57434;42.794;23.302;2024-02-28T04:50:40;20.30;;;9.02;;
70071;SDS011;57434;42.794;23.302;2024-02-28T04:51:41;21.20;;;9.07;;
70071;SDS011;57434;42.794;23.302;2024-02-28T04:52:43;24.08;;;9.45;;
70071;SDS011;57434;42.794;23.302;2024-02-28T04:53:45;16.05;;;8.85;;
70071;SDS011;57434;42.794;23.302;2024-02-28T04:54:47;22.17;;;8.90;;
70071;SDS011;57434;42.794;23.302;2024-02-28T04:55:49;24.92;;;9.88;;
70071;SDS011;57434;42.794;23.302;2024-02-28T04:56:50;21.58;;;10.07;;
70071;SDS011;57434;42.794;23.302;2024-02-28T04:57:52;34.22;;;15.27;;
70071;SDS011;57434;42.794;23.302;2024-02-28T04:58:54;25.55;;;10.38;;
70071;SDS011;57434;42.794;23.302;2024-02-28T04:59:56;25.77;;;10.90;;
70071;SDS011;57434;42.794;23.302;2024-02-28T05:00:57;22.00;;;10.68;;
70071;SDS011;57434;42.794;23.302;2024-02-28T05:01:59;23.77;;;10.60;;
70071;SDS011;57434;42.794;23.302;2024-02-28T05:03:01;21.83;;;9.93;;
70071;SDS011;57434;42.794;23.302;2024-02-28T05:04:03;23.25;;;9.98;;
70071;SDS011;57434;42.794;23.302;2024-02-28T05:05:04;31.35;;;14.55;;
70071;SDS011;57434;42.794;23.302;2024-02-28T05:06:06;30.15;;;12.15;;
70071;SDS011;57434;42.794;23.302;2024-02-28T05:07:08;26.55;;;10.45;;
70071;SDS011;57434;42.794;23.302;2024-02-28T05:08:10;23.48;;;11.02;;
70071;SDS011;57434;42.794;23.302;2024-02-28T05:09:11;23.77;;;11.32;;
70071;SDS011;57434;42.794;23.302;2024-02-28T05:10:13;21.17;;;10.30;;
70071;SDS011;57434;42.794;23.302;2024-02-28T05:11:15;23.98;;;10.88;;
70071;SDS011;57434;42.794;23.302;2024-02-28T05:12:17;62.37;;;34.73;;
70071;SDS011;57434;42.794;23.302;2024-02-28T05:13:18;39.97;;;21.80;;
70071;SDS011;57434;42.794;23.302;2024-02-28T05:14:20;36.65;;;21.33;;
70071;SDS011;57434;42.794;23.302;2024-02-28T05:15:22;30.48;;;16.63;;
70071;SDS011;57434;42.794;23.302;2024-02-28T05:16:24;31.15;;;14.32;;
70071;SDS011;57434;42.794;23.302;2024-02-28T05:17:25;25.95;;;13.15;;
70071;SDS011;57434;42.794;23.302;2024-02-28T05:18:27;25.20;;;12.68;;
70071;SDS011;57434;42.794;23.302;2024-02-28T05:19:29;23.48;;;11.10;;
70071;SDS011;57434;42.794;23.302;2024-02-28T05:20:30;30.27;;;12.50;;
70071;SDS011;57434;42.794;23.302;2024-02-28T05:21:38;32.70;;;12.48;;
70071;SDS011;57434;42.794;23.302;2024-02-28T05:22:40;29.47;;;13.70;;
70071;SDS011;57434;42.794;23.302;2024-02-28T05:23:42;25.30;;;12.60;;
70071;SDS011;57434;42.794;23.302;2024-02-28T05:24:46;32.15;;;13.57;;
70071;SDS011;57434;42.794;23.302;2024-02-28T05:25:48;28.75;;;12.57;;
70071;SDS011;57434;42.794;23.302;2024-02-28T05:26:50;30.88;;;14.18;;
70071;SDS011;57434;42.794;23.302;2024-02-28T05:27:52;30.92;;;13.15;;
70071;SDS011;57434;42.794;23.302;2024-02-28T05:28:53;27.52;;;13.75;;
70071;SDS011;57434;42.794;23.302;2024-02-28T05:29:55;32.47;;;13.75;;
70071;SDS011;57434;42.794;23.302;2024-02-28T05:30:57;27.10;;;12.55;;
70071;SDS011;57434;42.794;23.302;2024-02-28T05:31:58;25.73;;;12.57;;
70071;SDS011;57434;42.794;23.302;2024-02-28T05:33:00;30.07;;;12.87;;
70071;SDS011;57434;42.794;23.302;2024-02-28T05:34:02;29.92;;;14.02;;
70071;SDS011;57434;42.794;23.302;2024-02-28T05:35:04;32.00;;;14.88;;
70071;SDS011;57434;42.794;23.302;2024-02-28T05:36:06;27.48;;;13.48;;
70071;SDS011;57434;42.794;23.302;2024-02-28T05:37:08;28.40;;;13.77;;
70071;SDS011;57434;42.794;23.302;2024-02-28T05:38:10;32.63;;;13.80;;
70071;SDS011;57434;42.794;23.302;2024-02-28T05:39:11;24.75;;;12.38;;
70071;SDS011;57434;42.794;23.302;2024-02-28T05:40:13;30.65;;;14.05;;
70071;SDS011;57434;42.794;23.302;2024-02-28T05:41:18;27.88;;;14.35;;
70071;SDS011;57434;42.794;23.302;2024-02-28T05:42:19;28.45;;;12.80;;
70071;SDS011;57434;42.794;23.302;2024-02-28T05:43:21;30.63;;;14.13;;
70071;SDS011;57434;42.794;23.302;2024-02-28T05:44:23;29.30;;;13.68;;
70071;SDS011;57434;42.794;23.302;2024-02-28T05:45:25;31.10;;;14.98;;
70071;SDS011;57434;42.794;23.302;2024-02-28T05:46:27;31.58;;;13.57;;
70071;SDS011;57434;42.794;23.302;2024-02-28T05:47:28;29.15;;;14.07;;
70071;SDS011;57434;42.794;23.302;2024-02-28T05:48:30;28.60;;;12.60;;
70071;SDS011;57434;42.794;23.302;2024-02-28T05:49:32;28.45;;;13.15;;
70071;SDS011;57434;42.794;23.302;2024-02-28T05:50:34;29.75;;;13.00;;
70071;SDS011;57434;42.794;23.302;2024-02-28T05:51:35;30.38;;;12.68;;
70071;SDS011;57434;42.794;23.302;2024-02-28T05:52:37;30.80;;;12.43;;
70071;SDS011;57434;42.794;23.302;2024-02-28T05:53:39;26.00;;;12.73;;
70071;SDS011;57434;42.794;23.302;2024-02-28T05:54:41;32.97;;;14.68;;
70071;SDS011;57434;42.794;23.302;2024-02-28T05:55:43;25.13;;;11.82;;
70071;SDS011;57434;42.794;23.302;2024-02-28T05:56:46;26.13;;;12.70;;
70071;SDS011;57434;42.794;23.302;2024-02-28T05:57:47;27.88;;;13.15;;
70071;SDS011;57434;42.794;23.302;2024-02-28T05:58:49;27.70;;;12.25;;
70071;SDS011;57434;42.794;23.302;2024-02-28T05:59:51;36.35;;;15.15;;
70071;SDS011;57434;42.794;23.302;2024-02-28T06:00:53;29.08;;;13.93;;